Terminal Aerodrome Forecast
Issued by NWS Albany, NY

Home | Current Version | Previous Version | Text Only | Print | Product List | Glossary On
Versions: 1 2 3 4 5 6 7 8 9 10 11 12 13 14 15 16 17 18 19 20 21 22 23
104
FTUS41 KALY 082328
TAFALB
TAF
KALB 082328Z 0900/0924 27010G15KT P6SM SCT040
     FM090500 26011G18KT P6SM VCSH BKN040
     FM091000 28014G22KT P6SM VCSH BKN045
     FM091500 31015G25KT P6SM VCSH BKN050=

USA.gov is the U.S. government's official web portal to all federal, state and local government web resources and services.